sensor_id;sensor_type;location;lat;lon;timestamp;temperature;humidity
9223;DHT22;7557;51.698;3.942;2022-07-04T00:01:57;19.00;99.90
9223;DHT22;7557;51.698;3.942;2022-07-04T00:04:26;19.00;99.90
9223;DHT22;7557;51.698;3.942;2022-07-04T00:06:53;19.00;99.90
9223;DHT22;7557;51.698;3.942;2022-07-04T00:09:21;19.10;99.90
9223;DHT22;7557;51.698;3.942;2022-07-04T00:11:48;19.00;99.90
9223;DHT22;7557;51.698;3.942;2022-07-04T00:14:16;18.90;99.90
9223;DHT22;7557;51.698;3.942;2022-07-04T00:16:43;18.80;99.90
9223;DHT22;7557;51.698;3.942;2022-07-04T00:19:11;18.60;99.90
9223;DHT22;7557;51.698;3.942;2022-07-04T00:21:38;18.40;99.90
9223;DHT22;7557;51.698;3.942;2022-07-04T00:24:05;18.30;99.90
9223;DHT22;7557;51.698;3.942;2022-07-04T00:26:34;18.20;99.90
9223;DHT22;7557;51.698;3.942;2022-07-04T00:29:01;18.10;99.90
9223;DHT22;7557;51.698;3.942;2022-07-04T00:31:28;18.00;99.90
9223;DHT22;7557;51.698;3.942;2022-07-04T00:33:55;17.90;99.90
9223;DHT22;7557;51.698;3.942;2022-07-04T00:36:23;17.90;99.90
9223;DHT22;7557;51.698;3.942;2022-07-04T00:38:50;17.80;99.90
9223;DHT22;7557;51.698;3.942;2022-07-04T00:41:17;17.80;99.90
9223;DHT22;7557;51.698;3.942;2022-07-04T00:43:59;17.80;99.90
9223;DHT22;7557;51.698;3.942;2022-07-04T00:46:27;17.80;99.90
9223;DHT22;7557;51.698;3.942;2022-07-04T00:48:54;17.80;99.90
9223;DHT22;7557;51.698;3.942;2022-07-04T00:51:22;17.80;99.90
9223;DHT22;7557;51.698;3.942;2022-07-04T00:53:50;17.80;99.90
9223;DHT22;7557;51.698;3.942;2022-07-04T00:56:17;17.80;99.90
9223;DHT22;7557;51.698;3.942;2022-07-04T00:58:46;17.70;99.90
9223;DHT22;7557;51.698;3.942;2022-07-04T01:01:14;17.70;99.90
9223;DHT22;7557;51.698;3.942;2022-07-04T01:03:41;17.70;99.90
9223;DHT22;7557;51.698;3.942;2022-07-04T01:06:08;17.70;99.90
9223;DHT22;7557;51.698;3.942;2022-07-04T01:08:37;17.70;99.90
9223;DHT22;7557;51.698;3.942;2022-07-04T01:11:04;17.80;99.90
9223;DHT22;7557;51.698;3.942;2022-07-04T01:13:32;17.70;99.90
9223;DHT22;7557;51.698;3.942;2022-07-04T01:16:01;17.70;99.90
9223;DHT22;7557;51.698;3.942;2022-07-04T01:18:28;17.70;99.90
9223;DHT22;7557;51.698;3.942;2022-07-04T01:20:57;17.70;99.90
9223;DHT22;7557;51.698;3.942;2022-07-04T01:23:24;17.70;99.90
9223;DHT22;7557;51.698;3.942;2022-07-04T01:25:51;17.60;99.90
9223;DHT22;7557;51.698;3.942;2022-07-04T01:28:19;17.60;99.90
9223;DHT22;7557;51.698;3.942;2022-07-04T01:30:46;17.60;99.90
9223;DHT22;7557;51.698;3.942;2022-07-04T01:33:13;17.60;99.90
9223;DHT22;7557;51.698;3.942;2022-07-04T01:35:43;17.60;99.90
9223;DHT22;7557;51.698;3.942;2022-07-04T01:38:11;17.50;99.90
9223;DHT22;7557;51.698;3.942;2022-07-04T01:40:39;17.50;99.90
9223;DHT22;7557;51.698;3.942;2022-07-04T01:43:06;17.50;99.90
9223;DHT22;7557;51.698;3.942;2022-07-04T01:45:34;17.50;99.90
9223;DHT22;7557;51.698;3.942;2022-07-04T01:48:04;17.40;99.90
9223;DHT22;7557;51.698;3.942;2022-07-04T01:50:31;17.40;99.90
9223;DHT22;7557;51.698;3.942;2022-07-04T01:52:58;17.30;99.90
9223;DHT22;7557;51.698;3.942;2022-07-04T01:55:27;17.30;99.90
9223;DHT22;7557;51.698;3.942;2022-07-04T01:57:55;17.40;99.90
9223;DHT22;7557;51.698;3.942;2022-07-04T02:00:23;17.40;99.90
9223;DHT22;7557;51.698;3.942;2022-07-04T02:03:08;17.40;99.90
9223;DHT22;7557;51.698;3.942;2022-07-04T02:05:35;17.40;99.90
9223;DHT22;7557;51.698;3.942;2022-07-04T02:08:03;17.40;99.90
9223;DHT22;7557;51.698;3.942;2022-07-04T02:10:32;17.40;99.90
9223;DHT22;7557;51.698;3.942;2022-07-04T02:13:00;17.40;99.90
9223;DHT22;7557;51.698;3.942;2022-07-04T02:15:30;17.30;99.90
9223;DHT22;7557;51.698;3.942;2022-07-04T02:17:58;17.30;99.90
9223;DHT22;7557;51.698;3.942;2022-07-04T02:20:26;17.40;99.90
9223;DHT22;7557;51.698;3.942;2022-07-04T02:22:53;17.50;99.90
9223;DHT22;7557;51.698;3.942;2022-07-04T02:25:21;17.60;99.90
9223;DHT22;7557;51.698;3.942;2022-07-04T02:27:50;17.60;99.90
9223;DHT22;7557;51.698;3.942;2022-07-04T02:30:17;17.60;99.90
9223;DHT22;7557;51.698;3.942;2022-07-04T02:32:44;17.60;99.90
9223;DHT22;7557;51.698;3.942;2022-07-04T02:35:12;17.60;99.90
9223;DHT22;7557;51.698;3.942;2022-07-04T02:37:39;17.60;99.90
9223;DHT22;7557;51.698;3.942;2022-07-04T02:40:07;17.60;99.90
9223;DHT22;7557;51.698;3.942;2022-07-04T02:42:35;17.70;99.90
9223;DHT22;7557;51.698;3.942;2022-07-04T02:45:05;17.70;99.90
9223;DHT22;7557;51.698;3.942;2022-07-04T02:47:33;17.80;99.90
9223;DHT22;7557;51.698;3.942;2022-07-04T02:50:00;17.90;99.90
9223;DHT22;7557;51.698;3.942;2022-07-04T02:52:28;17.90;99.90
9223;DHT22;7557;51.698;3.942;2022-07-04T02:54:56;17.90;99.90
9223;DHT22;7557;51.698;3.942;2022-07-04T02:57:23;17.80;99.90
9223;DHT22;7557;51.698;3.942;2022-07-04T02:59:50;17.70;99.90
9223;DHT22;7557;51.698;3.942;2022-07-04T03:02:19;17.70;99.90
9223;DHT22;7557;51.698;3.942;2022-07-04T03:04:46;17.80;99.90
9223;DHT22;7557;51.698;3.942;2022-07-04T03:07:13;17.90;99.90
9223;DHT22;7557;51.698;3.942;2022-07-04T03:09:40;18.00;99.90
9223;DHT22;7557;51.698;3.942;2022-07-04T03:12:08;18.10;99.90
9223;DHT22;7557;51.698;3.942;2022-07-04T03:14:35;18.10;99.90
9223;DHT22;7557;51.698;3.942;2022-07-04T03:17:02;18.00;99.90
9223;DHT22;7557;51.698;3.942;2022-07-04T03:19:31;18.00;99.90
9223;DHT22;7557;51.698;3.942;2022-07-04T03:21:58;17.90;99.90
9223;DHT22;7557;51.698;3.942;2022-07-04T03:24:25;17.80;99.90
9223;DHT22;7557;51.698;3.942;2022-07-04T03:26:52;17.80;99.90
9223;DHT22;7557;51.698;3.942;2022-07-04T03:29:19;17.70;99.90
9223;DHT22;7557;51.698;3.942;2022-07-04T03:31:46;17.60;99.90
9223;DHT22;7557;51.698;3.942;2022-07-04T03:34:14;17.60;99.90
9223;DHT22;7557;51.698;3.942;2022-07-04T03:36:42;17.50;99.90
9223;DHT22;7557;51.698;3.942;2022-07-04T03:39:09;17.50;99.90
9223;DHT22;7557;51.698;3.942;2022-07-04T03:41:37;17.50;99.90
9223;DHT22;7557;51.698;3.942;2022-07-04T03:44:04;17.50;99.90
9223;DHT22;7557;51.698;3.942;2022-07-04T03:46:31;17.50;99.90
9223;DHT22;7557;51.698;3.942;2022-07-04T03:48:58;17.50;99.90
9223;DHT22;7557;51.698;3.942;2022-07-04T03:51:26;17.30;99.90
9223;DHT22;7557;51.698;3.942;2022-07-04T03:53:54;17.20;99.90
9223;DHT22;7557;51.698;3.942;2022-07-04T03:56:21;17.20;99.90
9223;DHT22;7557;51.698;3.942;2022-07-04T03:58:49;17.10;99.90
9223;DHT22;7557;51.698;3.942;2022-07-04T04:01:16;17.00;99.90
9223;DHT22;7557;51.698;3.942;2022-07-04T04:03:44;17.00;99.90
9223;DHT22;7557;51.698;3.942;2022-07-04T04:06:29;17.00;99.90
9223;DHT22;7557;51.698;3.942;2022-07-04T04:08:58;16.90;99.90
9223;DHT22;7557;51.698;3.942;2022-07-04T04:11:25;16.90;99.90
9223;DHT22;7557;51.698;3.942;2022-07-04T04:13:53;16.80;99.90
9223;DHT22;7557;51.698;3.942;2022-07-04T04:16:20;16.80;99.90
9223;DHT22;7557;51.698;3.942;2022-07-04T04:18:47;16.80;99.90
9223;DHT22;7557;51.698;3.942;2022-07-04T04:21:14;16.70;99.90
9223;DHT22;7557;51.698;3.942;2022-07-04T04:23:41;16.70;99.90
9223;DHT22;7557;51.698;3.942;2022-07-04T04:26:10;16.60;99.90
9223;DHT22;7557;51.698;3.942;2022-07-04T04:28:38;16.70;99.90
9223;DHT22;7557;51.698;3.942;2022-07-04T04:31:05;16.80;99.90
9223;DHT22;7557;51.698;3.942;2022-07-04T04:33:32;16.80;99.90
9223;DHT22;7557;51.698;3.942;2022-07-04T04:35:59;16.80;99.90
9223;DHT22;7557;51.698;3.942;2022-07-04T04:38:26;16.80;99.90
9223;DHT22;7557;51.698;3.942;2022-07-04T04:40:53;16.80;99.90
9223;DHT22;7557;51.698;3.942;2022-07-04T04:43:22;16.90;99.90
9223;DHT22;7557;51.698;3.942;2022-07-04T04:45:49;17.00;99.90
9223;DHT22;7557;51.698;3.942;2022-07-04T04:48:16;17.10;99.90
9223;DHT22;7557;51.698;3.942;2022-07-04T04:50:43;17.10;99.90
9223;DHT22;7557;51.698;3.942;2022-07-04T04:53:11;17.10;99.90
9223;DHT22;7557;51.698;3.942;2022-07-04T04:55:38;17.10;99.90
9223;DHT22;7557;51.698;3.942;2022-07-04T04:58:06;17.10;99.90
9223;DHT22;7557;51.698;3.942;2022-07-04T05:00:34;17.20;99.90
9223;DHT22;7557;51.698;3.942;2022-07-04T05:03:02;17.30;99.90
9223;DHT22;7557;51.698;3.942;2022-07-04T05:05:29;17.30;99.90
9223;DHT22;7557;51.698;3.942;2022-07-04T05:07:56;17.50;99.90
9223;DHT22;7557;51.698;3.942;2022-07-04T05:10:23;17.60;99.90
9223;DHT22;7557;51.698;3.942;2022-07-04T05:12:50;17.70;99.90
9223;DHT22;7557;51.698;3.942;2022-07-04T05:15:17;17.70;99.90
9223;DHT22;7557;51.698;3.942;2022-07-04T05:17:46;17.70;99.90
9223;DHT22;7557;51.698;3.942;2022-07-04T05:20:13;17.80;99.90
9223;DHT22;7557;51.698;3.942;2022-07-04T05:22:40;17.80;99.90
9223;DHT22;7557;51.698;3.942;2022-07-04T05:25:08;17.90;99.90
9223;DHT22;7557;51.698;3.942;2022-07-04T05:27:35;18.00;99.90
9223;DHT22;7557;51.698;3.942;2022-07-04T05:30:03;18.10;99.90
9223;DHT22;7557;51.698;3.942;2022-07-04T05:32:31;18.30;99.90
9223;DHT22;7557;51.698;3.942;2022-07-04T05:34:59;18.50;99.90
9223;DHT22;7557;51.698;3.942;2022-07-04T05:37:26;18.80;99.90
9223;DHT22;7557;51.698;3.942;2022-07-04T05:39:53;19.00;99.90
9223;DHT22;7557;51.698;3.942;2022-07-04T05:42:21;19.20;99.90
9223;DHT22;7557;51.698;3.942;2022-07-04T05:44:48;19.40;99.90
9223;DHT22;7557;51.698;3.942;2022-07-04T05:47:15;19.60;99.90
9223;DHT22;7557;51.698;3.942;2022-07-04T05:49:42;19.90;99.90
9223;DHT22;7557;51.698;3.942;2022-07-04T05:52:11;20.20;99.90
9223;DHT22;7557;51.698;3.942;2022-07-04T05:54:38;20.40;99.90
9223;DHT22;7557;51.698;3.942;2022-07-04T05:57:05;20.70;99.90
9223;DHT22;7557;51.698;3.942;2022-07-04T05:59:32;21.00;99.90
9223;DHT22;7557;51.698;3.942;2022-07-04T06:01:59;21.30;99.90
9223;DHT22;7557;51.698;3.942;2022-07-04T06:04:27;21.50;99.90
9223;DHT22;7557;51.698;3.942;2022-07-04T06:06:54;21.70;99.90
9223;DHT22;7557;51.698;3.942;2022-07-04T06:09:22;21.70;99.90
9223;DHT22;7557;51.698;3.942;2022-07-04T06:11:50;21.80;99.90
9223;DHT22;7557;51.698;3.942;2022-07-04T06:14:17;22.10;99.90
9223;DHT22;7557;51.698;3.942;2022-07-04T06:16:44;22.40;99.90
9223;DHT22;7557;51.698;3.942;2022-07-04T06:19:11;22.70;99.90
9223;DHT22;7557;51.698;3.942;2022-07-04T06:21:38;23.10;99.90
9223;DHT22;7557;51.698;3.942;2022-07-04T06:24:05;23.40;99.90
9223;DHT22;7557;51.698;3.942;2022-07-04T06:26:34;23.60;99.90
9223;DHT22;7557;51.698;3.942;2022-07-04T06:29:01;23.90;99.90
9223;DHT22;7557;51.698;3.942;2022-07-04T06:31:28;24.10;99.90
9223;DHT22;7557;51.698;3.942;2022-07-04T06:33:55;24.30;99.90
9223;DHT22;7557;51.698;3.942;2022-07-04T06:36:40;24.50;99.90
9223;DHT22;7557;51.698;3.942;2022-07-04T06:39:07;24.70;99.90
9223;DHT22;7557;51.698;3.942;2022-07-04T06:41:35;24.90;99.90
9223;DHT22;7557;51.698;3.942;2022-07-04T06:44:03;25.10;99.90
9223;DHT22;7557;51.698;3.942;2022-07-04T06:46:30;25.30;99.90
9223;DHT22;7557;51.698;3.942;2022-07-04T06:48:58;25.40;99.90
9223;DHT22;7557;51.698;3.942;2022-07-04T06:51:25;25.50;99.90
9223;DHT22;7557;51.698;3.942;2022-07-04T06:53:52;25.60;99.90
9223;DHT22;7557;51.698;3.942;2022-07-04T06:56:19;25.70;99.60
9223;DHT22;7557;51.698;3.942;2022-07-04T06:58:47;25.60;99.30
9223;DHT22;7557;51.698;3.942;2022-07-04T07:01:15;25.50;99.50
9223;DHT22;7557;51.698;3.942;2022-07-04T07:03:43;25.60;99.50
9223;DHT22;7557;51.698;3.942;2022-07-04T07:06:10;25.70;98.90
9223;DHT22;7557;51.698;3.942;2022-07-04T07:08:37;25.90;98.30
9223;DHT22;7557;51.698;3.942;2022-07-04T07:11:04;25.90;97.70
9223;DHT22;7557;51.698;3.942;2022-07-04T07:13:40;26.00;97.70
9223;DHT22;7557;51.698;3.942;2022-07-04T07:16:09;26.10;97.90
9223;DHT22;7557;51.698;3.942;2022-07-04T07:18:36;26.20;98.10
9223;DHT22;7557;51.698;3.942;2022-07-04T07:21:04;26.20;98.10
9223;DHT22;7557;51.698;3.942;2022-07-04T07:23:31;26.30;97.30
9223;DHT22;7557;51.698;3.942;2022-07-04T07:25:59;26.20;97.00
9223;DHT22;7557;51.698;3.942;2022-07-04T07:28:27;26.30;97.00
9223;DHT22;7557;51.698;3.942;2022-07-04T07:30:54;26.40;97.00
9223;DHT22;7557;51.698;3.942;2022-07-04T07:33:23;26.40;96.80
9223;DHT22;7557;51.698;3.942;2022-07-04T07:35:50;26.40;96.70
9223;DHT22;7557;51.698;3.942;2022-07-04T07:38:17;26.40;96.90
9223;DHT22;7557;51.698;3.942;2022-07-04T07:40:44;26.40;97.00
9223;DHT22;7557;51.698;3.942;2022-07-04T07:43:11;26.60;97.10
9223;DHT22;7557;51.698;3.942;2022-07-04T07:45:38;26.80;96.80
9223;DHT22;7557;51.698;3.942;2022-07-04T07:48:06;26.90;96.20
9223;DHT22;7557;51.698;3.942;2022-07-04T07:50:35;26.90;95.70
9223;DHT22;7557;51.698;3.942;2022-07-04T07:53:02;26.80;95.20
9223;DHT22;7557;51.698;3.942;2022-07-04T07:55:29;26.60;94.90
9223;DHT22;7557;51.698;3.942;2022-07-04T07:57:56;26.50;95.60
9223;DHT22;7557;51.698;3.942;2022-07-04T08:00:24;26.60;95.10
9223;DHT22;7557;51.698;3.942;2022-07-04T08:02:51;26.50;94.90
9223;DHT22;7557;51.698;3.942;2022-07-04T08:05:39;26.40;95.50
9223;DHT22;7557;51.698;3.942;2022-07-04T08:08:06;26.40;96.00
9223;DHT22;7557;51.698;3.942;2022-07-04T08:10:36;26.40;96.20
9223;DHT22;7557;51.698;3.942;2022-07-04T08:13:03;26.50;96.50
9223;DHT22;7557;51.698;3.942;2022-07-04T08:15:31;26.70;96.40
9223;DHT22;7557;51.698;3.942;2022-07-04T08:17:59;26.90;96.10
9223;DHT22;7557;51.698;3.942;2022-07-04T08:20:26;27.00;95.60
9223;DHT22;7557;51.698;3.942;2022-07-04T08:22:55;27.10;95.70
9223;DHT22;7557;51.698;3.942;2022-07-04T08:25:22;27.10;95.20
9223;DHT22;7557;51.698;3.942;2022-07-04T08:27:49;27.20;95.10
9223;DHT22;7557;51.698;3.942;2022-07-04T08:30:17;27.10;95.30
9223;DHT22;7557;51.698;3.942;2022-07-04T08:32:44;27.10;94.90
9223;DHT22;7557;51.698;3.942;2022-07-04T08:35:12;27.20;95.40
9223;DHT22;7557;51.698;3.942;2022-07-04T08:37:39;27.20;95.00
9223;DHT22;7557;51.698;3.942;2022-07-04T08:40:10;27.20;94.00
9223;DHT22;7557;51.698;3.942;2022-07-04T08:42:38;27.10;94.20
9223;DHT22;7557;51.698;3.942;2022-07-04T08:45:06;27.10;94.10
9223;DHT22;7557;51.698;3.942;2022-07-04T08:47:35;27.10;93.80
9223;DHT22;7557;51.698;3.942;2022-07-04T08:50:08;26.70;93.80
9223;DHT22;7557;51.698;3.942;2022-07-04T08:52:39;26.50;93.90
9223;DHT22;7557;51.698;3.942;2022-07-04T08:55:10;26.30;93.90
9223;DHT22;7557;51.698;3.942;2022-07-04T08:57:55;26.00;94.10
9223;DHT22;7557;51.698;3.942;2022-07-04T09:00:40;25.90;93.90
9223;DHT22;7557;51.698;3.942;2022-07-04T09:03:08;25.50;94.10
9223;DHT22;7557;51.698;3.942;2022-07-04T09:05:35;25.30;94.30
9223;DHT22;7557;51.698;3.942;2022-07-04T09:08:03;25.20;94.90
9223;DHT22;7557;51.698;3.942;2022-07-04T09:10:32;25.20;95.60
9223;DHT22;7557;51.698;3.942;2022-07-04T09:13:01;25.30;95.90
9223;DHT22;7557;51.698;3.942;2022-07-04T09:15:30;25.40;95.50
9223;DHT22;7557;51.698;3.942;2022-07-04T09:17:57;25.40;95.00
9223;DHT22;7557;51.698;3.942;2022-07-04T09:20:26;25.30;95.00
9223;DHT22;7557;51.698;3.942;2022-07-04T09:22:54;25.20;95.30
9223;DHT22;7557;51.698;3.942;2022-07-04T09:25:23;25.20;95.60
9223;DHT22;7557;51.698;3.942;2022-07-04T09:27:53;25.30;96.10
9223;DHT22;7557;51.698;3.942;2022-07-04T09:30:21;25.50;95.20
9223;DHT22;7557;51.698;3.942;2022-07-04T09:32:50;25.70;95.00
9223;DHT22;7557;51.698;3.942;2022-07-04T09:35:20;26.00;95.00
9223;DHT22;7557;51.698;3.942;2022-07-04T09:37:49;26.00;94.60
9223;DHT22;7557;51.698;3.942;2022-07-04T09:40:22;25.80;95.10
9223;DHT22;7557;51.698;3.942;2022-07-04T09:42:52;25.90;95.10
9223;DHT22;7557;51.698;3.942;2022-07-04T09:45:19;26.10;94.80
9223;DHT22;7557;51.698;3.942;2022-07-04T09:47:48;26.30;94.40
9223;DHT22;7557;51.698;3.942;2022-07-04T09:50:17;26.50;94.60
9223;DHT22;7557;51.698;3.942;2022-07-04T09:52:47;26.80;94.40
9223;DHT22;7557;51.698;3.942;2022-07-04T09:55:23;26.90;93.30
9223;DHT22;7557;51.698;3.942;2022-07-04T09:57:53;26.80;93.40
9223;DHT22;7557;51.698;3.942;2022-07-04T10:00:23;26.50;94.00
9223;DHT22;7557;51.698;3.942;2022-07-04T10:02:50;26.50;93.80
9223;DHT22;7557;51.698;3.942;2022-07-04T10:05:20;26.30;93.90
9223;DHT22;7557;51.698;3.942;2022-07-04T10:07:48;26.00;94.30
9223;DHT22;7557;51.698;3.942;2022-07-04T10:10:30;25.60;94.40
9223;DHT22;7557;51.698;3.942;2022-07-04T10:13:02;25.30;94.80
9223;DHT22;7557;51.698;3.942;2022-07-04T10:15:29;25.30;94.90
9223;DHT22;7557;51.698;3.942;2022-07-04T10:17:57;25.50;95.00
9223;DHT22;7557;51.698;3.942;2022-07-04T10:20:24;25.60;94.50
9223;DHT22;7557;51.698;3.942;2022-07-04T10:22:52;25.50;94.30
9223;DHT22;7557;51.698;3.942;2022-07-04T10:25:19;25.50;94.60
9223;DHT22;7557;51.698;3.942;2022-07-04T10:27:46;25.50;94.40
9223;DHT22;7557;51.698;3.942;2022-07-04T10:30:23;25.50;94.20
9223;DHT22;7557;51.698;3.942;2022-07-04T10:32:51;25.50;94.40
9223;DHT22;7557;51.698;3.942;2022-07-04T10:35:47;25.60;95.30
9223;DHT22;7557;51.698;3.942;2022-07-04T10:38:15;25.70;94.50
9223;DHT22;7557;51.698;3.942;2022-07-04T10:40:48;25.60;94.20
9223;DHT22;7557;51.698;3.942;2022-07-04T10:49:25;25.70;94.20
9223;DHT22;7557;51.698;3.942;2022-07-04T10:51:55;25.70;94.40
9223;DHT22;7557;51.698;3.942;2022-07-04T10:54:29;25.70;94.30
9223;DHT22;7557;51.698;3.942;2022-07-04T10:57:05;25.80;94.30
9223;DHT22;7557;51.698;3.942;2022-07-04T10:59:35;26.00;93.70
9223;DHT22;7557;51.698;3.942;2022-07-04T11:02:25;26.30;93.80
9223;DHT22;7557;51.698;3.942;2022-07-04T11:04:55;26.50;93.30
9223;DHT22;7557;51.698;3.942;2022-07-04T11:07:57;26.50;92.80
9223;DHT22;7557;51.698;3.942;2022-07-04T11:10:24;26.50;93.10
9223;DHT22;7557;51.698;3.942;2022-07-04T11:13:14;26.60;92.80
9223;DHT22;7557;51.698;3.942;2022-07-04T11:16:02;26.70;92.70
9223;DHT22;7557;51.698;3.942;2022-07-04T11:18:29;26.80;92.50
9223;DHT22;7557;51.698;3.942;2022-07-04T11:20:57;26.80;92.60
9223;DHT22;7557;51.698;3.942;2022-07-04T11:23:25;26.60;92.60
9223;DHT22;7557;51.698;3.942;2022-07-04T11:25:53;26.50;92.90
9223;DHT22;7557;51.698;3.942;2022-07-04T11:28:23;26.60;92.90
9223;DHT22;7557;51.698;3.942;2022-07-04T11:30:51;26.70;92.80
9223;DHT22;7557;51.698;3.942;2022-07-04T11:33:20;26.80;92.60
9223;DHT22;7557;51.698;3.942;2022-07-04T11:36:04;26.90;92.90
9223;DHT22;7557;51.698;3.942;2022-07-04T11:38:51;27.00;92.70
9223;DHT22;7557;51.698;3.942;2022-07-04T11:41:20;27.10;92.10
9223;DHT22;7557;51.698;3.942;2022-07-04T11:44:08;27.00;92.30
9223;DHT22;7557;51.698;3.942;2022-07-04T11:47:02;27.00;92.30
9223;DHT22;7557;51.698;3.942;2022-07-04T11:49:29;27.00;92.30
9223;DHT22;7557;51.698;3.942;2022-07-04T11:51:57;26.90;92.00
9223;DHT22;7557;51.698;3.942;2022-07-04T11:54:25;26.60;92.30
9223;DHT22;7557;51.698;3.942;2022-07-04T11:56:52;26.50;92.40
9223;DHT22;7557;51.698;3.942;2022-07-04T11:59:34;26.50;92.40
9223;DHT22;7557;51.698;3.942;2022-07-04T12:02:12;26.50;92.10
9223;DHT22;7557;51.698;3.942;2022-07-04T12:04:40;26.50;92.30
9223;DHT22;7557;51.698;3.942;2022-07-04T12:07:14;26.40;91.90
9223;DHT22;7557;51.698;3.942;2022-07-04T12:09:44;26.40;92.10
9223;DHT22;7557;51.698;3.942;2022-07-04T12:12:12;26.20;92.00
9223;DHT22;7557;51.698;3.942;2022-07-04T12:14:48;26.10;92.70
9223;DHT22;7557;51.698;3.942;2022-07-04T12:17:22;26.10;92.60
9223;DHT22;7557;51.698;3.942;2022-07-04T12:19:51;26.20;92.50
9223;DHT22;7557;51.698;3.942;2022-07-04T12:22:26;26.10;92.00
9223;DHT22;7557;51.698;3.942;2022-07-04T12:24:54;26.00;92.10
9223;DHT22;7557;51.698;3.942;2022-07-04T12:27:23;26.00;92.70
9223;DHT22;7557;51.698;3.942;2022-07-04T12:29:51;25.90;92.10
9223;DHT22;7557;51.698;3.942;2022-07-04T12:32:19;25.70;91.90
9223;DHT22;7557;51.698;3.942;2022-07-04T12:34:46;25.80;92.80
9223;DHT22;7557;51.698;3.942;2022-07-04T12:37:15;25.80;92.50
9223;DHT22;7557;51.698;3.942;2022-07-04T12:39:44;25.70;92.40
9223;DHT22;7557;51.698;3.942;2022-07-04T12:42:15;25.50;92.70
9223;DHT22;7557;51.698;3.942;2022-07-04T12:44:44;25.30;93.00
9223;DHT22;7557;51.698;3.942;2022-07-04T12:47:15;25.10;93.00
9223;DHT22;7557;51.698;3.942;2022-07-04T12:49:44;25.00;93.20
9223;DHT22;7557;51.698;3.942;2022-07-04T12:52:14;25.20;93.30
9223;DHT22;7557;51.698;3.942;2022-07-04T12:54:42;25.30;93.30
9223;DHT22;7557;51.698;3.942;2022-07-04T12:57:14;25.40;93.00
9223;DHT22;7557;51.698;3.942;2022-07-04T12:59:42;25.40;93.00
9223;DHT22;7557;51.698;3.942;2022-07-04T13:02:10;25.50;93.20
9223;DHT22;7557;51.698;3.942;2022-07-04T13:04:38;25.40;93.40
9223;DHT22;7557;51.698;3.942;2022-07-04T13:07:13;25.40;93.80
9223;DHT22;7557;51.698;3.942;2022-07-04T13:09:41;25.50;93.50
9223;DHT22;7557;51.698;3.942;2022-07-04T13:12:09;25.50;93.40
9223;DHT22;7557;51.698;3.942;2022-07-04T13:14:56;25.40;92.90
9223;DHT22;7557;51.698;3.942;2022-07-04T13:17:24;25.20;93.60
9223;DHT22;7557;51.698;3.942;2022-07-04T13:19:52;25.10;93.90
9223;DHT22;7557;51.698;3.942;2022-07-04T13:22:20;25.10;94.20
9223;DHT22;7557;51.698;3.942;2022-07-04T13:24:48;25.10;94.10
9223;DHT22;7557;51.698;3.942;2022-07-04T13:27:16;25.00;94.20
9223;DHT22;7557;51.698;3.942;2022-07-04T13:29:43;25.00;94.10
9223;DHT22;7557;51.698;3.942;2022-07-04T13:32:12;25.00;94.00
9223;DHT22;7557;51.698;3.942;2022-07-04T13:34:39;25.10;93.80
9223;DHT22;7557;51.698;3.942;2022-07-04T13:37:07;25.00;94.00
9223;DHT22;7557;51.698;3.942;2022-07-04T13:39:34;25.00;94.20
9223;DHT22;7557;51.698;3.942;2022-07-04T13:42:01;25.00;94.60
9223;DHT22;7557;51.698;3.942;2022-07-04T13:44:29;25.00;95.00
9223;DHT22;7557;51.698;3.942;2022-07-04T13:46:56;25.00;94.60
9223;DHT22;7557;51.698;3.942;2022-07-04T13:49:26;24.80;94.70
9223;DHT22;7557;51.698;3.942;2022-07-04T13:51:53;24.90;94.30
9223;DHT22;7557;51.698;3.942;2022-07-04T13:54:20;24.90;93.90
9223;DHT22;7557;51.698;3.942;2022-07-04T13:56:47;24.80;93.60
9223;DHT22;7557;51.698;3.942;2022-07-04T13:59:14;24.80;93.80
9223;DHT22;7557;51.698;3.942;2022-07-04T14:01:41;24.80;93.60
9223;DHT22;7557;51.698;3.942;2022-07-04T14:04:08;24.80;93.90
9223;DHT22;7557;51.698;3.942;2022-07-04T14:06:37;24.80;94.40
9223;DHT22;7557;51.698;3.942;2022-07-04T14:09:04;24.80;94.80
9223;DHT22;7557;51.698;3.942;2022-07-04T14:11:31;24.80;95.00
9223;DHT22;7557;51.698;3.942;2022-07-04T14:13:59;24.90;94.80
9223;DHT22;7557;51.698;3.942;2022-07-04T14:16:26;24.80;94.30
9223;DHT22;7557;51.698;3.942;2022-07-04T14:18:53;24.80;94.80
9223;DHT22;7557;51.698;3.942;2022-07-04T14:21:20;24.70;94.40
9223;DHT22;7557;51.698;3.942;2022-07-04T14:23:49;24.70;93.80
9223;DHT22;7557;51.698;3.942;2022-07-04T14:26:18;24.50;93.90
9223;DHT22;7557;51.698;3.942;2022-07-04T14:28:46;24.40;94.40
9223;DHT22;7557;51.698;3.942;2022-07-04T14:31:13;24.40;94.60
9223;DHT22;7557;51.698;3.942;2022-07-04T14:33:40;24.40;94.70
9223;DHT22;7557;51.698;3.942;2022-07-04T14:36:08;24.40;94.60
9223;DHT22;7557;51.698;3.942;2022-07-04T14:38:36;24.40;94.10
9223;DHT22;7557;51.698;3.942;2022-07-04T14:41:05;24.30;94.10
9223;DHT22;7557;51.698;3.942;2022-07-04T14:43:38;24.20;94.40
9223;DHT22;7557;51.698;3.942;2022-07-04T14:46:06;24.10;94.50
9223;DHT22;7557;51.698;3.942;2022-07-04T14:48:34;24.00;94.50
9223;DHT22;7557;51.698;3.942;2022-07-04T14:51:02;24.00;94.90
9223;DHT22;7557;51.698;3.942;2022-07-04T14:53:32;24.10;94.90
9223;DHT22;7557;51.698;3.942;2022-07-04T14:55:59;24.20;94.70
9223;DHT22;7557;51.698;3.942;2022-07-04T14:58:28;24.10;94.70
9223;DHT22;7557;51.698;3.942;2022-07-04T15:00:55;24.00;94.90
9223;DHT22;7557;51.698;3.942;2022-07-04T15:03:22;24.00;95.20
9223;DHT22;7557;51.698;3.942;2022-07-04T15:05:50;24.00;95.50
9223;DHT22;7557;51.698;3.942;2022-07-04T15:11:39;23.90;95.00
9223;DHT22;7557;51.698;3.942;2022-07-04T15:14:07;23.80;95.50
9223;DHT22;7557;51.698;3.942;2022-07-04T15:16:34;23.80;95.40
9223;DHT22;7557;51.698;3.942;2022-07-04T15:19:02;23.80;95.40
9223;DHT22;7557;51.698;3.942;2022-07-04T15:21:29;23.70;95.30
9223;DHT22;7557;51.698;3.942;2022-07-04T15:24:22;23.70;95.60
9223;DHT22;7557;51.698;3.942;2022-07-04T15:26:50;23.70;95.90
9223;DHT22;7557;51.698;3.942;2022-07-04T15:29:20;23.70;95.70
9223;DHT22;7557;51.698;3.942;2022-07-04T15:31:48;23.70;95.50
9223;DHT22;7557;51.698;3.942;2022-07-04T15:34:16;23.60;95.30
9223;DHT22;7557;51.698;3.942;2022-07-04T15:36:44;23.50;95.60
9223;DHT22;7557;51.698;3.942;2022-07-04T15:39:12;23.50;95.50
9223;DHT22;7557;51.698;3.942;2022-07-04T15:41:40;23.50;95.40
9223;DHT22;7557;51.698;3.942;2022-07-04T15:44:08;23.30;95.20
9223;DHT22;7557;51.698;3.942;2022-07-04T15:46:37;23.30;95.60
9223;DHT22;7557;51.698;3.942;2022-07-04T15:49:24;23.20;95.80
9223;DHT22;7557;51.698;3.942;2022-07-04T15:51:51;23.20;96.00
9223;DHT22;7557;51.698;3.942;2022-07-04T15:54:19;23.20;96.00
9223;DHT22;7557;51.698;3.942;2022-07-04T15:56:49;23.30;96.10
9223;DHT22;7557;51.698;3.942;2022-07-04T15:59:16;23.30;95.90
9223;DHT22;7557;51.698;3.942;2022-07-04T16:01:44;23.20;95.90
9223;DHT22;7557;51.698;3.942;2022-07-04T16:04:12;23.20;96.10
9223;DHT22;7557;51.698;3.942;2022-07-04T16:06:39;23.30;96.20
9223;DHT22;7557;51.698;3.942;2022-07-04T16:09:06;23.30;96.00
9223;DHT22;7557;51.698;3.942;2022-07-04T16:11:34;23.30;96.20
9223;DHT22;7557;51.698;3.942;2022-07-04T16:14:01;23.40;96.50
9223;DHT22;7557;51.698;3.942;2022-07-04T16:16:29;23.60;96.60
9223;DHT22;7557;51.698;3.942;2022-07-04T16:18:59;23.60;96.20
9223;DHT22;7557;51.698;3.942;2022-07-04T16:21:26;23.60;96.50
9223;DHT22;7557;51.698;3.942;2022-07-04T16:23:53;23.70;96.70